createdAt,value
2023-03-18T00:01:26.957Z,10.45
2023-03-18T00:06:30.088Z,10.48
2023-03-18T00:11:32.967Z,10.46
2023-03-18T00:16:37.786Z,10.35
2023-03-18T00:21:40.511Z,10.36
2023-03-18T00:26:43.640Z,10.40
2023-03-18T00:31:48.225Z,10.34
2023-03-18T00:36:56.859Z,10.29
2023-03-18T00:42:01.873Z,10.26
2023-03-18T00:47:06.860Z,10.26
2023-03-18T00:52:10.805Z,10.26
2023-03-18T00:57:13.614Z,10.26
2023-03-18T01:02:18.187Z,10.29
2023-03-18T01:07:20.987Z,10.19
2023-03-18T01:12:25.594Z,10.24
2023-03-18T01:17:29.670Z,10.27
2023-03-18T01:22:32.513Z,10.25
2023-03-18T01:27:35.492Z,10.29
2023-03-18T01:32:39.756Z,10.29
2023-03-18T01:37:43.809Z,10.17
2023-03-18T01:42:49.716Z,10.20
2023-03-18T01:47:55.652Z,10.16
2023-03-18T01:53:00.935Z,10.20
2023-03-18T01:58:06.074Z,10.23
2023-03-18T02:03:10.354Z,10.22
2023-03-18T02:08:13.124Z,10.12
2023-03-18T02:13:16.981Z,10.21
2023-03-18T02:18:24.758Z,10.18
2023-03-18T02:23:47.444Z,10.12
2023-03-18T02:28:53.458Z,10.16
2023-03-18T02:33:56.869Z,10.16
2023-03-18T02:39:00.378Z,10.11
2023-03-18T02:44:04.829Z,10.09
2023-03-18T02:49:14.776Z,10.05
2023-03-18T02:54:20.812Z,10.07
2023-03-18T02:59:25.529Z,9.85
2023-03-18T03:04:29.088Z,9.89
2023-03-18T03:09:32.031Z,9.87
2023-03-18T03:14:36.920Z,9.92
2023-03-18T03:19:39.948Z,9.85
2023-03-18T03:24:42.931Z,9.69
2023-03-18T03:29:47.099Z,9.82
2023-03-18T03:34:50.344Z,9.76
2023-03-18T03:39:53.448Z,9.70
2023-03-18T03:44:57.482Z,9.70
2023-03-18T03:50:00.361Z,9.64
2023-03-18T03:55:04.133Z,9.58
2023-03-18T04:00:13.317Z,9.51
2023-03-18T04:05:24.498Z,9.49
2023-03-18T04:10:28.455Z,9.40
2023-03-18T04:15:33.753Z,9.39
2023-03-18T04:20:43.159Z,9.41
2023-03-18T04:25:56.345Z,9.46
2023-03-18T04:31:00.553Z,9.46
2023-03-18T04:36:03.503Z,9.47
2023-03-18T04:41:06.684Z,9.36
2023-03-18T04:46:11.998Z,9.45
2023-03-18T04:51:15.582Z,9.48
2023-03-18T04:56:19.755Z,9.42
2023-03-18T05:01:28.346Z,9.31
2023-03-18T05:06:33.525Z,9.26
2023-03-18T05:11:44.937Z,9.15
2023-03-18T05:16:57.606Z,9.07
2023-03-18T05:22:01.222Z,9.04
2023-03-18T05:27:05.151Z,8.93
2023-03-18T05:32:16.555Z,9.04
2023-03-18T05:37:20.679Z,8.91
2023-03-18T05:42:36.662Z,8.83
2023-03-18T05:47:44.254Z,8.81
2023-03-18T05:52:49.466Z,8.87
2023-03-18T05:57:56.989Z,8.79
2023-03-18T06:03:02.618Z,8.89
2023-03-18T06:08:06.819Z,9.01
2023-03-18T06:13:12.724Z,8.97
2023-03-18T06:18:17.099Z,8.97
2023-03-18T06:23:19.915Z,8.91
2023-03-18T06:28:22.743Z,9.05
2023-03-18T06:33:27.124Z,9.08
2023-03-18T06:38:31.401Z,9.18
2023-03-18T06:43:34.989Z,9.27
2023-03-18T06:48:40.589Z,9.48
2023-03-18T06:53:45.383Z,9.51
2023-03-18T06:58:48.442Z,9.47
2023-03-18T07:03:54.361Z,9.62
2023-03-18T07:08:57.523Z,9.75
2023-03-18T07:14:00.676Z,10.04
2023-03-18T07:19:09.815Z,10.17
2023-03-18T07:24:14.197Z,10.18
2023-03-18T07:29:17.509Z,10.43
2023-03-18T07:34:21.636Z,10.61
2023-03-18T07:39:24.482Z,10.66
2023-03-18T07:44:27.505Z,10.77
2023-03-18T07:49:32.802Z,11.13
2023-03-18T07:54:35.639Z,11.16
2023-03-18T07:59:38.921Z,11.19
2023-03-18T08:04:44.061Z,11.08
2023-03-18T08:09:46.899Z,11.15
2023-03-18T08:14:49.715Z,11.29
2023-03-18T08:19:53.864Z,11.28
2023-03-18T08:24:58.058Z,11.25
2023-03-18T08:30:03.506Z,11.31
2023-03-18T08:35:09.730Z,11.34
2023-03-18T08:40:13.707Z,11.38
2023-03-18T08:45:16.932Z,11.42
2023-03-18T08:50:21.214Z,11.82
2023-03-18T08:55:24.136Z,11.97
2023-03-18T09:00:27.353Z,11.98
2023-03-18T09:05:32.836Z,12.18
2023-03-18T09:10:35.816Z,12.30
2023-03-18T09:15:38.594Z,12.51
2023-03-18T09:20:43.255Z,12.65
2023-03-18T09:25:46.621Z,12.72
2023-03-18T09:30:49.466Z,12.73
2023-03-18T09:35:53.877Z,12.81
2023-03-18T09:41:04.183Z,12.77
2023-03-18T09:46:11.398Z,12.99
2023-03-18T09:51:24.059Z,13.01
2023-03-18T09:56:29.957Z,13.40
2023-03-18T10:01:36.109Z,13.68
2023-03-18T10:06:45.772Z,14.13
2023-03-18T10:11:49.860Z,13.90
2023-03-18T10:17:01.998Z,14.05
2023-03-18T10:22:18.778Z,13.78
2023-03-18T10:27:26.153Z,13.80
2023-03-18T10:32:46.336Z,14.03
2023-03-18T10:37:57.108Z,13.95
2023-03-18T10:43:00.058Z,14.14
2023-03-18T10:48:06.201Z,14.28
2023-03-18T10:53:16.693Z,14.31
2023-03-18T10:58:20.232Z,13.85
2023-03-18T11:03:26.502Z,14.37
2023-03-18T11:08:34.749Z,14.46
2023-03-18T11:13:37.535Z,14.61
2023-03-18T11:18:51.279Z,14.93
2023-03-18T11:24:08.566Z,14.84
2023-03-18T11:29:14.185Z,15.24
2023-03-18T11:34:18.194Z,15.15
2023-03-18T11:39:23.706Z,15.25
2023-03-18T11:44:30.907Z,15.28
2023-03-18T11:49:34.436Z,15.72
2023-03-18T11:54:56.139Z,15.67
2023-03-18T12:00:17.644Z,15.85
2023-03-18T12:05:48.111Z,15.65
2023-03-18T12:10:55.963Z,15.82
2023-03-18T12:16:06.574Z,15.81
2023-03-18T12:21:21.470Z,15.84
2023-03-18T12:26:29.460Z,16.13
2023-03-18T12:31:53.635Z,15.74
2023-03-18T12:37:07.347Z,16.13
2023-03-18T12:42:13.642Z,16.35
2023-03-18T12:47:19.468Z,16.36
2023-03-18T12:52:30.070Z,16.19
2023-03-18T12:57:42.019Z,16.73
2023-03-18T13:02:50.352Z,16.63
2023-03-18T13:08:00.221Z,16.34
2023-03-18T13:13:07.862Z,16.63
2023-03-18T13:18:15.930Z,16.23
2023-03-18T13:23:30.991Z,16.68
2023-03-18T13:28:51.391Z,16.82
2023-03-18T13:34:26.542Z,16.60
2023-03-18T13:39:48.211Z,16.71
2023-03-18T13:44:58.762Z,16.46
2023-03-18T13:50:04.745Z,16.61
2023-03-18T13:55:13.581Z,16.62
2023-03-18T14:00:31.242Z,16.70
2023-03-18T14:05:41.733Z,16.60
2023-03-18T14:10:44.550Z,16.51
2023-03-18T14:15:48.770Z,16.42
2023-03-18T14:20:54.612Z,16.32
2023-03-18T14:26:05.245Z,16.40
2023-03-18T14:31:21.123Z,16.45
2023-03-18T14:36:31.053Z,16.80
2023-03-18T14:41:37.039Z,17.19
2023-03-18T14:46:44.660Z,17.56
2023-03-18T14:51:48.046Z,17.07
2023-03-18T14:56:54.675Z,16.91
2023-03-18T15:01:59.635Z,16.68
2023-03-18T15:07:05.417Z,17.06
2023-03-18T15:12:19.068Z,17.14
2023-03-18T15:17:27.362Z,16.92
2023-03-18T15:22:31.383Z,16.97
2023-03-18T15:27:37.342Z,16.97
2023-03-18T15:32:46.768Z,17.23
2023-03-18T15:38:05.495Z,17.18
2023-03-18T15:43:18.971Z,17.17
2023-03-18T15:48:27.953Z,17.12
2023-03-18T15:53:35.722Z,16.70
2023-03-18T15:58:39.341Z,16.69
2023-03-18T16:03:44.116Z,16.56
2023-03-18T16:08:47.691Z,16.56
2023-03-18T16:13:50.952Z,16.43
2023-03-18T16:18:57.156Z,16.34
2023-03-18T16:24:00.714Z,16.29
2023-03-18T16:29:03.803Z,16.24
2023-03-18T16:34:13.795Z,16.09
2023-03-18T16:39:18.560Z,15.99
2023-03-18T16:44:23.378Z,15.92
2023-03-18T16:49:30.834Z,15.93
2023-03-18T16:54:34.665Z,15.72
2023-03-18T16:59:38.593Z,15.22
2023-03-18T17:04:43.217Z,14.88
2023-03-18T17:09:45.975Z,13.88
2023-03-18T17:14:52.820Z,13.01
2023-03-18T17:19:57.129Z,12.87
2023-03-18T17:25:02.133Z,12.80
2023-03-18T17:30:16.971Z,12.85
2023-03-18T17:35:23.644Z,13.02
2023-03-18T17:40:30.257Z,13.14
2023-03-18T17:45:34.971Z,13.11
2023-03-18T17:50:39.500Z,13.30
2023-03-18T17:55:42.331Z,13.26
2023-03-18T18:00:46.335Z,13.12
2023-03-18T18:05:50.614Z,13.21
2023-03-18T18:10:54.364Z,13.08
2023-03-18T18:15:57.181Z,13.05
2023-03-18T18:21:03.857Z,12.81
2023-03-18T18:26:07.970Z,12.90
2023-03-18T18:31:12.106Z,13.01
2023-03-18T18:36:16.704Z,12.82
2023-03-18T18:41:20.549Z,12.79
2023-03-18T18:46:24.110Z,12.69
2023-03-18T18:51:28.274Z,12.56
2023-03-18T18:56:34.417Z,12.44
2023-03-18T19:01:37.130Z,12.31
2023-03-18T19:06:41.757Z,12.26
2023-03-18T19:11:44.645Z,12.30
2023-03-18T19:16:48.169Z,12.24
2023-03-18T19:21:52.569Z,12.00
2023-03-18T19:26:56.170Z,12.00
2023-03-18T19:32:01.281Z,11.98
2023-03-18T19:37:07.935Z,11.83
2023-03-18T19:42:14.521Z,11.85
2023-03-18T19:47:19.773Z,11.78
2023-03-18T19:52:25.549Z,11.72
2023-03-18T19:57:30.456Z,11.73
2023-03-18T20:02:34.832Z,11.69
2023-03-18T20:07:38.905Z,11.68
2023-03-18T20:12:43.122Z,11.64
2023-03-18T20:17:47.342Z,11.53
2023-03-18T20:22:53.474Z,11.44
2023-03-18T20:27:57.736Z,11.42
2023-03-18T20:33:04.120Z,11.19
2023-03-18T20:38:11.819Z,11.21
2023-03-18T20:43:15.958Z,11.18
2023-03-18T20:48:19.017Z,11.16
2023-03-18T20:53:25.315Z,11.14
2023-03-18T20:58:28.852Z,11.11
2023-03-18T21:03:33.422Z,10.97
2023-03-18T21:08:37.837Z,10.88
2023-03-18T21:13:40.537Z,10.93
2023-03-18T21:18:45.357Z,11.02
2023-03-18T21:23:49.715Z,11.03
2023-03-18T21:28:52.592Z,10.97
2023-03-18T21:33:57.379Z,10.99
2023-03-18T21:39:01.477Z,10.83
2023-03-18T21:44:04.224Z,10.77
2023-03-18T21:49:06.947Z,10.86
2023-03-18T21:54:17.912Z,10.80
2023-03-18T21:59:20.637Z,10.73
2023-03-18T22:04:23.339Z,10.85
2023-03-18T22:09:28.225Z,10.80
2023-03-18T22:14:31.012Z,10.77
2023-03-18T22:19:33.782Z,10.76
2023-03-18T22:24:37.872Z,10.68
2023-03-18T22:29:40.615Z,10.77
2023-03-18T22:34:43.336Z,10.75
2023-03-18T22:39:47.439Z,10.66
2023-03-18T22:44:50.403Z,10.57
2023-03-18T22:49:53.464Z,10.54
2023-03-18T22:55:00.133Z,10.47
2023-03-18T23:00:05.101Z,10.37
2023-03-18T23:05:17.375Z,10.37
2023-03-18T23:10:22.362Z,10.31
2023-03-18T23:15:25.494Z,10.29
2023-03-18T23:20:28.368Z,10.23
2023-03-18T23:25:32.769Z,10.10
2023-03-18T23:30:36.577Z,10.11
2023-03-18T23:35:39.442Z,10.12
2023-03-18T23:40:43.640Z,10.10
2023-03-18T23:45:46.486Z,10.09
2023-03-18T23:50:49.353Z,10.01
2023-03-18T23:55:53.450Z,10.00
